createdAt,value
2023-02-11T00:02:02.451Z,43.30
2023-02-11T00:05:07.782Z,42.83
2023-02-11T00:08:17.066Z,52.63
2023-02-11T00:11:23.248Z,48.63
2023-02-11T00:14:27.419Z,49.87
2023-02-11T00:17:31.219Z,48.43
2023-02-11T00:20:34.912Z,49.37
2023-02-11T00:23:40.438Z,50.20
2023-02-11T00:26:45.029Z,53.57
2023-02-11T00:29:48.832Z,47.00
2023-02-11T00:32:52.582Z,47.90
2023-02-11T00:35:56.357Z,45.50
2023-02-11T00:39:01.990Z,43.77
2023-02-11T00:42:05.987Z,40.07
2023-02-11T00:45:10.890Z,42.77
2023-02-11T00:48:14.599Z,43.70
2023-02-11T00:51:18.689Z,49.03
2023-02-11T00:54:23.862Z,43.23
2023-02-11T00:57:27.568Z,44.53
2023-02-11T01:00:31.292Z,40.63
2023-02-11T01:03:35.236Z,44.23
2023-02-11T01:06:39.008Z,40.07
2023-02-11T01:09:44.067Z,41.90
2023-02-11T01:12:48.036Z,47.80
2023-02-11T01:15:51.943Z,40.13
2023-02-11T01:18:55.999Z,39.60
2023-02-11T01:21:59.791Z,44.20
2023-02-11T01:25:05.382Z,40.63
2023-02-11T01:28:14.015Z,44.60
2023-02-11T01:31:17.905Z,38.63
2023-02-11T01:34:21.674Z,44.77
2023-02-11T01:37:25.385Z,47.73
2023-02-11T01:40:30.858Z,42.50
2023-02-11T01:43:39.086Z,45.93
2023-02-11T01:46:42.884Z,41.23
2023-02-11T01:49:50.884Z,35.83
2023-02-11T01:53:14.789Z,34.80
2023-02-11T01:56:39.730Z,40.73
2023-02-11T01:59:53.142Z,40.03
2023-02-11T02:03:06.236Z,39.00
2023-02-11T02:06:20.912Z,44.97
2023-02-11T02:09:30.306Z,36.37
2023-02-11T02:12:35.407Z,46.97
2023-02-11T02:15:42.518Z,36.77
2023-02-11T02:18:58.059Z,36.53
2023-02-11T02:22:46.764Z,34.20
2023-02-11T02:26:38.840Z,33.37
2023-02-11T02:30:15.891Z,33.97
2023-02-11T02:33:36.278Z,43.27
2023-02-11T02:36:48.567Z,37.00
2023-02-11T02:39:52.493Z,32.33
2023-02-11T02:42:59.027Z,35.37
2023-02-11T02:46:18.322Z,33.20
2023-02-11T02:49:23.454Z,36.27
2023-02-11T02:52:43.471Z,34.87
2023-02-11T02:56:03.683Z,35.97
2023-02-11T02:59:38.308Z,32.20
2023-02-11T03:02:59.894Z,33.93
2023-02-11T03:06:13.623Z,33.40
2023-02-11T03:09:29.326Z,28.17
2023-02-11T03:12:36.202Z,32.73
2023-02-11T03:15:45.319Z,40.17
2023-02-11T03:18:58.246Z,32.43
2023-02-11T03:22:08.859Z,30.37
2023-02-11T03:25:12.598Z,30.73
2023-02-11T03:28:28.288Z,40.30
2023-02-11T03:31:42.992Z,31.77
2023-02-11T03:34:56.079Z,33.50
2023-02-11T03:38:07.113Z,36.50
2023-02-11T03:41:12.635Z,32.63
2023-02-11T03:44:18.589Z,30.40
2023-02-11T03:47:29.199Z,32.67
2023-02-11T03:50:37.523Z,30.07
2023-02-11T03:53:47.676Z,31.47
2023-02-11T03:56:57.779Z,30.00
2023-02-11T04:00:01.962Z,32.03
2023-02-11T04:03:06.209Z,31.90
2023-02-11T04:06:10.324Z,28.70
2023-02-11T04:09:15.811Z,25.37
2023-02-11T04:12:19.596Z,28.87
2023-02-11T04:15:23.378Z,30.27
2023-02-11T04:18:27.066Z,33.07
2023-02-11T04:21:30.679Z,23.77
2023-02-11T04:24:36.660Z,26.67
2023-02-11T04:27:40.433Z,30.27
2023-02-11T04:30:44.190Z,33.47
2023-02-11T04:33:47.869Z,28.33
2023-02-11T04:36:51.724Z,23.47
2023-02-11T04:39:56.863Z,31.60
2023-02-11T04:43:00.605Z,25.23
2023-02-11T04:46:04.339Z,29.63
2023-02-11T04:49:08.114Z,33.00
2023-02-11T04:52:11.851Z,27.00
2023-02-11T04:55:17.005Z,25.67
2023-02-11T04:58:21.411Z,24.40
2023-02-11T05:01:25.252Z,30.87
2023-02-11T05:04:29.055Z,33.57
2023-02-11T05:07:33.101Z,36.17
2023-02-11T05:10:38.656Z,28.17
2023-02-11T05:13:42.348Z,31.73
2023-02-11T05:16:46.148Z,32.77
2023-02-11T05:19:49.902Z,30.07
2023-02-11T05:22:53.598Z,33.37
2023-02-11T05:25:58.766Z,26.20
2023-02-11T05:29:02.434Z,24.17
2023-02-11T05:32:07.460Z,26.13
2023-02-11T05:35:11.178Z,28.90
2023-02-11T05:38:14.974Z,25.40
2023-02-11T05:41:20.099Z,28.20
2023-02-11T05:44:23.946Z,29.63
2023-02-11T05:47:27.739Z,34.30
2023-02-11T05:50:31.505Z,31.47
2023-02-11T05:53:35.511Z,28.47
2023-02-11T05:56:43.111Z,30.60
2023-02-11T05:59:48.148Z,33.60
2023-02-11T06:02:52.139Z,26.13
2023-02-11T06:05:55.836Z,29.00
2023-02-11T06:08:59.733Z,27.77
2023-02-11T06:12:05.222Z,31.60
2023-02-11T06:15:09.858Z,33.67
2023-02-11T06:18:13.566Z,36.53
2023-02-11T06:21:17.223Z,30.33
2023-02-11T06:24:44.337Z,29.17
2023-02-11T06:27:46.034Z,31.27
2023-02-11T06:30:49.786Z,31.00
2023-02-11T06:33:55.039Z,32.07
2023-02-11T06:36:58.701Z,28.40
2023-02-11T06:40:02.446Z,40.57
2023-02-11T06:43:07.572Z,37.70
2023-02-11T06:46:11.583Z,32.77
2023-02-11T06:49:15.618Z,36.50
2023-02-11T06:52:19.411Z,38.77
2023-02-11T06:55:23.190Z,44.43
2023-02-11T06:58:28.349Z,33.40
2023-02-11T07:01:32.233Z,37.67
2023-02-11T07:04:35.974Z,37.53
2023-02-11T07:07:39.784Z,36.67
2023-02-11T07:10:43.563Z,38.90
2023-02-11T07:13:49.356Z,35.53
2023-02-11T07:16:53.237Z,41.17
2023-02-11T07:19:56.920Z,44.00
2023-02-11T07:23:01.071Z,70.17
2023-02-11T07:26:06.211Z,33.23
2023-02-11T07:29:11.370Z,37.00
2023-02-11T07:32:15.431Z,32.90
2023-02-11T07:35:19.295Z,34.63
2023-02-11T07:38:25.742Z,36.83
2023-02-11T07:41:29.948Z,37.67
2023-02-11T07:44:38.098Z,37.13
2023-02-11T07:47:42.832Z,41.80
2023-02-11T07:50:46.597Z,41.13
2023-02-11T07:53:51.115Z,37.30
2023-02-11T07:57:00.288Z,34.83
2023-02-11T08:00:07.157Z,39.07
2023-02-11T08:03:10.889Z,37.73
2023-02-11T08:06:17.634Z,36.57
2023-02-11T08:09:28.620Z,37.40
2023-02-11T08:12:32.908Z,38.30
2023-02-11T08:15:52.895Z,39.33
2023-02-11T08:19:00.186Z,39.37
2023-02-11T08:22:03.903Z,40.47
2023-02-11T08:25:08.382Z,35.47
2023-02-11T08:28:12.092Z,39.77
2023-02-11T08:31:20.757Z,39.07
2023-02-11T08:34:24.497Z,39.13
2023-02-11T08:37:28.206Z,37.83
2023-02-11T08:40:32.010Z,42.63
2023-02-11T08:43:35.795Z,44.47
2023-02-11T08:46:40.914Z,39.10
2023-02-11T08:49:44.544Z,35.13
2023-02-11T08:52:48.429Z,38.00
2023-02-11T08:55:52.593Z,44.87
2023-02-11T08:58:56.617Z,40.03
2023-02-11T09:02:01.813Z,36.73
2023-02-11T09:05:05.914Z,42.37
2023-02-11T09:08:09.603Z,32.30
2023-02-11T09:11:14.629Z,34.60
2023-02-11T09:14:23.064Z,34.30
2023-02-11T09:17:28.210Z,36.00
2023-02-11T09:20:32.394Z,35.20
2023-02-11T09:23:37.039Z,36.53
2023-02-11T09:26:43.696Z,32.47
2023-02-11T09:29:47.544Z,32.47
2023-02-11T09:32:52.671Z,38.17
2023-02-11T09:35:56.381Z,36.20
2023-02-11T09:39:02.940Z,30.53
2023-02-11T09:42:39.342Z,33.83
2023-02-11T09:45:43.197Z,31.33
2023-02-11T09:48:52.233Z,36.23
2023-02-11T09:52:06.346Z,32.57
2023-02-11T09:55:23.053Z,28.87
2023-02-11T09:58:30.950Z,35.47
2023-02-11T10:01:42.348Z,34.63
2023-02-11T10:05:17.617Z,34.90
2023-02-11T10:08:40.634Z,37.57
2023-02-11T10:11:58.228Z,43.10
2023-02-11T10:15:27.184Z,38.43
2023-02-11T10:19:08.755Z,33.83
2023-02-11T10:22:21.476Z,32.57
2023-02-11T10:25:28.884Z,27.20
2023-02-11T10:28:35.287Z,33.10
2023-02-11T10:31:44.733Z,33.27
2023-02-11T10:34:49.063Z,35.23
2023-02-11T10:37:54.727Z,35.63
2023-02-11T10:40:58.397Z,34.23
2023-02-11T10:44:02.855Z,31.30
2023-02-11T10:47:17.036Z,33.33
2023-02-11T10:50:25.931Z,33.87
2023-02-11T10:53:31.081Z,27.97
2023-02-11T10:56:38.941Z,34.43
2023-02-11T10:59:43.464Z,34.40
2023-02-11T11:02:55.650Z,38.53
2023-02-11T11:06:03.303Z,36.83
2023-02-11T11:09:17.886Z,38.30
2023-02-11T11:12:42.071Z,36.35
2023-02-11T11:15:46.094Z,34.23
2023-02-11T11:18:52.426Z,30.33
2023-02-11T11:21:58.644Z,31.07
2023-02-11T11:25:03.957Z,32.53
2023-02-11T11:28:10.649Z,30.23
2023-02-11T11:31:19.401Z,29.33
2023-02-11T11:34:32.389Z,29.07
2023-02-11T11:37:38.333Z,27.97
2023-02-11T11:40:43.374Z,29.70
2023-02-11T11:44:01.856Z,28.47
2023-02-11T11:47:30.630Z,30.57
2023-02-11T11:50:41.507Z,31.63
2023-02-11T11:53:54.733Z,29.87
2023-02-11T11:57:20.507Z,36.23
2023-02-11T12:00:36.432Z,32.07
2023-02-11T12:04:28.617Z,27.53
2023-02-11T12:07:51.434Z,34.90
2023-02-11T12:11:10.766Z,34.10
2023-02-11T12:14:29.999Z,30.83
2023-02-11T12:17:53.520Z,32.43
2023-02-11T12:21:27.691Z,31.00
2023-02-11T12:24:57.786Z,31.87
2023-02-11T12:28:23.092Z,31.70
2023-02-11T12:31:49.155Z,26.17
2023-02-11T12:35:18.039Z,27.93
2023-02-11T12:38:40.090Z,27.43
2023-02-11T12:42:34.450Z,24.97
2023-02-11T12:46:11.120Z,25.47
2023-02-11T12:49:46.148Z,27.00
2023-02-11T12:53:23.826Z,28.13
2023-02-11T12:56:39.735Z,24.27
2023-02-11T12:59:56.566Z,21.77
2023-02-11T13:03:08.395Z,22.83
2023-02-11T13:06:20.582Z,29.93
2023-02-11T13:09:31.850Z,24.07
2023-02-11T13:12:55.324Z,24.07
2023-02-11T13:16:07.809Z,27.73
2023-02-11T13:19:26.655Z,23.37
2023-02-11T13:22:39.808Z,24.33
2023-02-11T13:25:52.027Z,27.93
2023-02-11T13:29:07.283Z,24.23
2023-02-11T13:32:14.993Z,25.17
2023-02-11T13:35:30.818Z,23.00
2023-02-11T13:38:37.592Z,24.63
2023-02-11T13:41:45.145Z,27.93
2023-02-11T13:44:48.902Z,24.70
2023-02-11T13:47:59.657Z,24.10
2023-02-11T13:51:07.690Z,29.47
2023-02-11T13:54:27.649Z,24.90
2023-02-11T13:57:39.145Z,27.23
2023-02-11T14:00:51.316Z,28.40
2023-02-11T14:04:39.784Z,27.33
2023-02-11T14:08:40.544Z,22.53
2023-02-11T14:11:50.320Z,32.77
2023-02-11T14:15:36.898Z,19.40
2023-02-11T14:19:01.016Z,30.83
2023-02-11T14:22:07.175Z,21.80
2023-02-11T14:25:23.357Z,31.83
2023-02-11T14:28:34.418Z,26.30
2023-02-11T14:31:49.014Z,23.40
2023-02-11T14:35:06.693Z,24.53
2023-02-11T14:38:26.071Z,31.33
2023-02-11T14:41:36.694Z,27.50
2023-02-11T14:44:42.851Z,25.13
2023-02-11T14:47:54.999Z,33.30
2023-02-11T14:51:05.092Z,20.10
2023-02-11T14:54:17.227Z,23.13
2023-02-11T14:57:22.009Z,26.53
2023-02-11T15:00:27.421Z,24.17
2023-02-11T15:03:37.867Z,22.30
2023-02-11T15:06:49.680Z,21.00
2023-02-11T15:09:55.701Z,27.30
2023-02-11T15:13:02.043Z,31.53
2023-02-11T15:16:11.269Z,21.67
2023-02-11T15:19:25.872Z,22.93
2023-02-11T15:22:36.519Z,22.67
2023-02-11T15:25:46.404Z,18.07
2023-02-11T15:28:52.784Z,23.00
2023-02-11T15:32:14.856Z,24.67
2023-02-11T15:35:20.125Z,17.83
2023-02-11T15:38:25.191Z,21.83
2023-02-11T15:41:38.807Z,24.40
2023-02-11T15:44:42.577Z,24.03
2023-02-11T15:47:54.073Z,20.80
2023-02-11T15:51:02.760Z,18.93
2023-02-11T15:54:17.927Z,25.30
2023-02-11T15:57:23.984Z,24.00
2023-02-11T16:00:36.785Z,27.60
2023-02-11T16:03:44.336Z,26.70
2023-02-11T16:06:48.997Z,24.03
2023-02-11T16:09:59.827Z,20.50
2023-02-11T16:13:21.107Z,22.87
2023-02-11T16:16:28.817Z,29.33
2023-02-11T16:19:36.131Z,27.03
2023-02-11T16:22:40.044Z,21.63
2023-02-11T16:25:44.214Z,19.73
2023-02-11T16:28:48.320Z,21.63
2023-02-11T16:31:54.542Z,18.67
2023-02-11T16:35:01.915Z,27.87
2023-02-11T16:38:05.708Z,30.67
2023-02-11T16:41:11.866Z,32.67
2023-02-11T16:44:15.727Z,17.93
2023-02-11T16:47:27.890Z,28.53
2023-02-11T16:50:33.646Z,28.97
2023-02-11T16:53:37.391Z,24.63
2023-02-11T16:56:41.680Z,23.77
2023-02-11T16:59:46.136Z,30.93
2023-02-11T17:02:50.027Z,34.20
2023-02-11T17:05:56.057Z,30.73
2023-02-11T17:08:59.944Z,37.20
2023-02-11T17:12:04.603Z,32.67
2023-02-11T17:15:23.737Z,23.57
2023-02-11T17:18:28.584Z,33.87
2023-02-11T17:21:36.715Z,24.60
2023-02-11T17:24:44.448Z,36.20
2023-02-11T17:27:52.887Z,34.10
2023-02-11T17:30:56.794Z,31.03
2023-02-11T17:34:03.232Z,26.60
2023-02-11T17:37:09.416Z,30.13
2023-02-11T17:40:15.900Z,36.83
2023-02-11T17:43:19.848Z,22.50
2023-02-11T17:46:28.620Z,23.63
2023-02-11T17:49:33.044Z,20.57
2023-02-11T17:52:38.985Z,26.67
2023-02-11T17:55:43.019Z,23.93
2023-02-11T17:58:47.403Z,28.23
2023-02-11T18:01:52.399Z,26.60
2023-02-11T18:04:57.909Z,32.03
2023-02-11T18:08:04.454Z,28.37
2023-02-11T18:11:12.653Z,29.43
2023-02-11T18:14:16.882Z,25.77
2023-02-11T18:17:21.258Z,33.17
2023-02-11T18:20:25.116Z,32.93
2023-02-11T18:23:31.214Z,30.37
2023-02-11T18:26:35.524Z,27.17
2023-02-11T18:29:39.670Z,28.63
2023-02-11T18:32:44.120Z,39.07
2023-02-11T18:35:49.505Z,30.07
2023-02-11T18:38:58.390Z,31.33
2023-02-11T18:42:03.340Z,32.83
2023-02-11T18:45:11.742Z,33.27
2023-02-11T18:48:16.713Z,31.80
2023-02-11T18:51:21.804Z,33.27
2023-02-11T18:54:27.216Z,37.00
2023-02-11T18:57:30.912Z,32.23
2023-02-11T19:00:36.711Z,27.77
2023-02-11T19:03:40.857Z,29.33
2023-02-11T19:07:03.813Z,37.87
2023-02-11T19:10:13.379Z,31.23
2023-02-11T19:13:17.164Z,28.73
2023-02-11T19:16:21.155Z,33.60
2023-02-11T19:19:29.292Z,34.73
2023-02-11T19:22:33.465Z,38.20
2023-02-11T19:25:46.693Z,37.90
2023-02-11T19:28:50.852Z,30.93
2023-02-11T19:31:55.578Z,41.70
2023-02-11T19:34:59.861Z,35.70
2023-02-11T19:38:03.994Z,36.20
2023-02-11T19:41:10.297Z,40.67
2023-02-11T19:44:16.735Z,51.73
2023-02-11T19:47:27.202Z,33.37
2023-02-11T19:50:31.099Z,39.97
2023-02-11T19:53:34.935Z,42.03
2023-02-11T19:56:40.408Z,39.23
2023-02-11T19:59:46.044Z,33.50
2023-02-11T20:02:50.024Z,47.03
2023-02-11T20:05:54.574Z,40.70
2023-02-11T20:09:01.366Z,43.53
2023-02-11T20:12:07.717Z,31.90
2023-02-11T20:15:11.950Z,44.63
2023-02-11T20:18:16.159Z,40.87
2023-02-11T20:21:23.548Z,33.63
2023-02-11T20:24:28.173Z,45.60
2023-02-11T20:27:33.496Z,41.20
2023-02-11T20:30:38.212Z,41.90
2023-02-11T20:33:44.532Z,43.40
2023-02-11T20:36:52.140Z,39.17
2023-02-11T20:39:56.240Z,44.83
2023-02-11T20:43:01.436Z,42.83
2023-02-11T20:46:07.279Z,40.00
2023-02-11T20:49:13.728Z,35.80
2023-02-11T20:52:17.499Z,40.13
2023-02-11T20:55:21.432Z,37.67
2023-02-11T20:58:26.556Z,34.97
2023-02-11T21:01:33.906Z,33.83
2023-02-11T21:04:39.157Z,38.47
2023-02-11T21:07:42.890Z,37.23
2023-02-11T21:10:46.675Z,35.07
2023-02-11T21:13:52.171Z,33.97
2023-02-11T21:16:56.313Z,29.80
2023-02-11T21:20:00.018Z,35.47
2023-02-11T21:23:03.709Z,29.23
2023-02-11T21:26:08.525Z,30.97
2023-02-11T21:29:13.633Z,34.30
2023-02-11T21:32:18.338Z,25.33
2023-02-11T21:35:22.067Z,25.43
2023-02-11T21:38:27.251Z,30.93
2023-02-11T21:41:31.406Z,29.30
2023-02-11T21:44:36.855Z,27.73
2023-02-11T21:47:40.613Z,26.83
2023-02-11T21:50:47.755Z,31.10
2023-02-11T21:53:55.944Z,29.73
2023-02-11T21:57:03.100Z,27.47
2023-02-11T22:00:11.020Z,28.37
2023-02-11T22:03:15.001Z,28.93
2023-02-11T22:06:22.375Z,33.23
2023-02-11T22:09:26.152Z,34.13
2023-02-11T22:12:29.971Z,37.60
2023-02-11T22:15:42.874Z,39.30
2023-02-11T22:18:46.595Z,37.60
2023-02-11T22:21:50.399Z,31.27
2023-02-11T22:24:54.191Z,29.57
2023-02-11T22:27:57.906Z,32.90
2023-02-11T22:31:03.139Z,40.63
2023-02-11T22:34:08.475Z,33.30
2023-02-11T22:37:12.501Z,31.43
2023-02-11T22:40:16.604Z,40.47
2023-02-11T22:43:20.264Z,29.30
2023-02-11T22:46:25.771Z,29.93
2023-02-11T22:49:32.506Z,34.17
2023-02-11T22:52:37.272Z,32.50
2023-02-11T22:55:41.809Z,28.10
2023-02-11T22:58:45.853Z,34.27
2023-02-11T23:01:51.418Z,33.10
2023-02-11T23:04:55.272Z,36.47
2023-02-11T23:07:59.661Z,38.17
2023-02-11T23:11:09.046Z,37.87
2023-02-11T23:14:13.133Z,35.27
2023-02-11T23:17:19.609Z,33.67
2023-02-11T23:20:23.432Z,34.53
2023-02-11T23:23:27.198Z,45.30
2023-02-11T23:26:31.496Z,37.80
2023-02-11T23:29:35.187Z,39.17
2023-02-11T23:32:41.313Z,40.13
2023-02-11T23:35:44.982Z,34.23
2023-02-11T23:38:49.903Z,44.73
2023-02-11T23:41:58.922Z,35.67
2023-02-11T23:45:02.776Z,44.43
2023-02-11T23:48:07.833Z,37.43
2023-02-11T23:51:11.604Z,36.53
2023-02-11T23:54:16.569Z,34.30
2023-02-11T23:57:20.602Z,44.60
